createdAt,value
2023-03-06T00:00:30.806Z,28.15
2023-03-06T00:02:58.000Z,28.38
2023-03-06T00:05:27.467Z,30.15
2023-03-06T00:07:54.599Z,28.48
2023-03-06T00:10:28.641Z,29.83
2023-03-06T00:12:59.081Z,27.90
2023-03-06T00:15:27.334Z,29.88
2023-03-06T00:17:55.117Z,29.65
2023-03-06T00:20:22.490Z,30.40
2023-03-06T00:22:50.057Z,28.85
2023-03-06T00:25:19.778Z,29.58
2023-03-06T00:27:47.387Z,29.25
2023-03-06T00:30:20.340Z,31.50
2023-03-06T00:32:47.936Z,30.55
2023-03-06T00:35:15.728Z,31.08
2023-03-06T00:37:42.993Z,31.33
2023-03-06T00:40:16.378Z,29.88
2023-03-06T00:42:43.429Z,29.63
2023-03-06T00:45:11.121Z,28.20
2023-03-06T00:47:38.116Z,28.25
2023-03-06T00:50:05.986Z,29.83
2023-03-06T00:52:33.409Z,29.00
2023-03-06T00:55:00.435Z,27.58
2023-03-06T00:57:27.309Z,28.60
2023-03-06T00:59:54.129Z,27.05
2023-03-06T01:02:21.455Z,27.13
2023-03-06T01:04:49.156Z,27.33
2023-03-06T01:07:16.065Z,26.08
2023-03-06T01:09:42.974Z,26.08
2023-03-06T01:12:10.040Z,25.77
2023-03-06T01:14:37.197Z,26.98
2023-03-06T01:17:04.319Z,27.10
2023-03-06T01:19:31.153Z,26.17
2023-03-06T01:21:57.966Z,27.08
2023-03-06T01:24:25.992Z,27.35
2023-03-06T01:26:53.100Z,27.30
2023-03-06T01:29:20.816Z,26.63
2023-03-06T01:31:47.895Z,26.40
2023-03-06T01:34:14.803Z,25.92
2023-03-06T01:36:41.665Z,26.45
2023-03-06T01:39:08.745Z,27.45
2023-03-06T01:41:35.822Z,26.50
2023-03-06T01:44:03.196Z,26.83
2023-03-06T01:46:34.613Z,25.38
2023-03-06T01:49:07.515Z,26.80
2023-03-06T01:52:02.640Z,26.65
2023-03-06T01:54:34.532Z,27.23
2023-03-06T01:57:08.528Z,27.40
2023-03-06T01:59:36.856Z,26.00
2023-03-06T02:02:06.051Z,27.70
2023-03-06T02:04:34.297Z,27.25
2023-03-06T02:07:06.309Z,28.00
2023-03-06T02:09:34.858Z,26.58
2023-03-06T02:12:03.282Z,25.95
2023-03-06T02:14:30.690Z,26.00
2023-03-06T02:16:57.858Z,27.08
2023-03-06T02:19:52.001Z,28.17
2023-03-06T02:22:19.094Z,26.60
2023-03-06T02:24:52.492Z,26.73
2023-03-06T02:27:20.765Z,26.02
2023-03-06T02:29:47.913Z,27.83
2023-03-06T02:32:14.965Z,25.27
2023-03-06T02:34:57.490Z,27.77
2023-03-06T02:37:26.266Z,25.77
2023-03-06T02:40:03.019Z,27.77
2023-03-06T02:42:30.210Z,27.90
2023-03-06T02:44:59.764Z,27.77
2023-03-06T02:47:26.983Z,28.80
2023-03-06T02:49:53.820Z,26.38
2023-03-06T02:52:20.945Z,27.73
2023-03-06T02:54:48.081Z,27.55
2023-03-06T02:57:15.197Z,26.83
2023-03-06T02:59:42.301Z,28.33
2023-03-06T03:02:09.365Z,26.80
2023-03-06T03:04:39.464Z,27.70
2023-03-06T03:07:06.366Z,28.05
2023-03-06T03:09:36.967Z,28.52
2023-03-06T03:12:05.846Z,27.98
2023-03-06T03:14:32.866Z,26.80
2023-03-06T03:17:00.487Z,27.58
2023-03-06T03:19:27.804Z,28.63
2023-03-06T03:21:54.680Z,28.30
2023-03-06T03:24:21.548Z,28.27
2023-03-06T03:26:48.543Z,28.85
2023-03-06T03:29:15.483Z,27.63
2023-03-06T03:31:42.299Z,27.50
2023-03-06T03:34:09.333Z,27.85
2023-03-06T03:36:36.637Z,28.27
2023-03-06T03:39:04.336Z,26.75
2023-03-06T03:41:32.423Z,27.17
2023-03-06T03:43:59.983Z,27.05
2023-03-06T03:46:27.787Z,27.63
2023-03-06T03:48:55.302Z,27.52
2023-03-06T03:51:24.268Z,27.25
2023-03-06T03:53:51.409Z,26.42
2023-03-06T03:56:19.220Z,26.63
2023-03-06T03:58:46.376Z,26.00
2023-03-06T04:01:13.535Z,26.95
2023-03-06T04:03:40.718Z,25.13
2023-03-06T04:06:09.472Z,26.88
2023-03-06T04:08:36.714Z,25.98
2023-03-06T04:11:03.880Z,27.27
2023-03-06T04:13:30.735Z,26.75
2023-03-06T04:15:59.157Z,28.15
2023-03-06T04:18:26.737Z,28.60
2023-03-06T04:20:53.722Z,26.67
2023-03-06T04:23:22.896Z,26.63
2023-03-06T04:25:50.131Z,28.27
2023-03-06T04:28:17.403Z,27.90
2023-03-06T04:30:44.245Z,26.98
2023-03-06T04:33:11.421Z,27.70
2023-03-06T04:35:38.608Z,28.83
2023-03-06T04:38:05.805Z,27.58
2023-03-06T04:40:34.985Z,26.70
2023-03-06T04:43:03.234Z,27.40
2023-03-06T04:45:31.152Z,29.50
2023-03-06T04:47:59.242Z,28.27
2023-03-06T04:50:28.363Z,28.38
2023-03-06T04:52:55.256Z,26.40
2023-03-06T04:55:22.116Z,28.75
2023-03-06T04:57:49.020Z,29.05
2023-03-06T05:00:20.722Z,28.40
2023-03-06T05:02:48.853Z,28.73
2023-03-06T05:05:16.649Z,27.75
2023-03-06T05:07:43.529Z,27.70
2023-03-06T05:10:16.480Z,28.27
2023-03-06T05:12:44.057Z,28.10
2023-03-06T05:15:12.902Z,30.17
2023-03-06T05:17:40.378Z,31.30
2023-03-06T05:20:09.785Z,29.85
2023-03-06T05:22:36.857Z,30.15
2023-03-06T05:25:04.976Z,31.67
2023-03-06T05:27:32.693Z,31.50
2023-03-06T05:30:00.312Z,30.90
2023-03-06T05:32:27.492Z,28.70
2023-03-06T05:34:54.867Z,28.83
2023-03-06T05:37:23.147Z,30.58
2023-03-06T05:39:50.858Z,29.55
2023-03-06T05:42:18.527Z,31.08
2023-03-06T05:44:45.781Z,28.67
2023-03-06T05:47:13.419Z,29.27
2023-03-06T05:49:40.514Z,30.15
2023-03-06T05:52:08.202Z,30.90
2023-03-06T05:54:36.530Z,30.52
2023-03-06T05:57:04.990Z,29.90
2023-03-06T05:59:33.158Z,27.92
2023-03-06T06:02:00.912Z,29.02
2023-03-06T06:04:28.137Z,29.45
2023-03-06T06:06:57.814Z,30.77
2023-03-06T06:09:25.855Z,29.92
2023-03-06T06:11:54.476Z,31.02
2023-03-06T06:14:21.756Z,30.88
2023-03-06T06:16:48.732Z,30.40
2023-03-06T06:19:18.890Z,29.52
2023-03-06T06:21:51.189Z,29.48
2023-03-06T06:24:20.038Z,29.63
2023-03-06T06:26:47.508Z,30.27
2023-03-06T06:29:15.357Z,30.10
2023-03-06T06:31:42.505Z,31.23
2023-03-06T06:34:11.019Z,28.88
2023-03-06T06:36:38.472Z,28.58
2023-03-06T06:39:07.072Z,30.13
2023-03-06T06:44:21.585Z,29.13
2023-03-06T06:47:21.189Z,29.20
2023-03-06T06:49:37.431Z,31.08
2023-03-06T06:52:05.929Z,30.73
2023-03-06T06:54:34.407Z,30.55
2023-03-06T06:57:01.273Z,29.15
2023-03-06T06:59:28.192Z,28.40
2023-03-06T07:01:55.035Z,29.50
2023-03-06T07:04:22.361Z,31.00
2023-03-06T07:06:49.238Z,33.13
2023-03-06T07:09:16.472Z,30.48
2023-03-06T07:11:43.299Z,29.65
2023-03-06T07:14:10.227Z,29.67
2023-03-06T07:16:37.096Z,29.25
2023-03-06T07:19:04.362Z,30.85
2023-03-06T07:21:31.340Z,27.65
2023-03-06T07:23:58.710Z,28.92
2023-03-06T07:26:27.446Z,29.40
2023-03-06T07:28:55.095Z,29.20
2023-03-06T07:31:24.796Z,29.85
2023-03-06T07:33:53.489Z,28.95
2023-03-06T07:36:21.749Z,29.33
2023-03-06T07:38:48.835Z,29.17
2023-03-06T07:41:17.196Z,28.23
2023-03-06T07:43:45.755Z,28.65
2023-03-06T07:46:14.688Z,28.63
2023-03-06T07:48:42.283Z,28.30
2023-03-06T07:51:15.059Z,30.15
2023-03-06T07:53:41.921Z,27.95
2023-03-06T07:56:09.560Z,27.95
2023-03-06T07:58:38.161Z,31.20
2023-03-06T08:01:11.507Z,28.80
2023-03-06T08:03:39.208Z,29.83
2023-03-06T08:06:15.647Z,29.25
2023-03-06T08:08:44.691Z,28.63
2023-03-06T08:11:13.578Z,29.10
2023-03-06T08:13:40.837Z,29.02
2023-03-06T08:16:08.732Z,27.85
2023-03-06T08:18:36.065Z,28.08
2023-03-06T08:21:08.530Z,27.52
2023-03-06T08:23:36.284Z,28.55
2023-03-06T08:26:06.755Z,28.02
2023-03-06T08:28:34.211Z,29.50
2023-03-06T08:31:09.673Z,27.67
2023-03-06T08:33:36.702Z,27.88
2023-03-06T08:36:03.823Z,28.50
2023-03-06T08:38:30.678Z,27.33
2023-03-06T08:40:57.564Z,27.30
2023-03-06T08:43:24.458Z,28.85
2023-03-06T08:45:56.493Z,28.63
2023-03-06T08:48:23.563Z,27.60
2023-03-06T08:50:50.524Z,29.10
2023-03-06T08:53:17.834Z,27.42
2023-03-06T08:55:44.947Z,26.35
2023-03-06T08:58:11.901Z,26.35
2023-03-06T09:00:39.580Z,26.52
2023-03-06T09:03:06.550Z,26.60
2023-03-06T09:05:33.974Z,27.05
2023-03-06T09:08:00.977Z,27.08
2023-03-06T09:10:28.188Z,27.20
2023-03-06T09:12:55.626Z,26.70
2023-03-06T09:15:23.376Z,27.08
2023-03-06T09:17:50.963Z,27.17
2023-03-06T09:20:18.912Z,27.50
2023-03-06T09:22:46.070Z,26.65
2023-03-06T09:25:13.983Z,26.38
2023-03-06T09:27:41.782Z,28.98
2023-03-06T09:30:09.489Z,26.67
2023-03-06T09:32:36.494Z,26.80
2023-03-06T09:35:03.744Z,26.92
2023-03-06T09:37:30.715Z,27.75
2023-03-06T09:39:57.871Z,26.08
2023-03-06T09:42:25.519Z,27.20
2023-03-06T09:45:02.173Z,26.08
2023-03-06T09:47:53.699Z,25.85
2023-03-06T09:50:38.647Z,25.67
2023-03-06T09:53:32.750Z,25.70
2023-03-06T09:56:07.537Z,24.65
2023-03-06T09:58:40.825Z,24.80
2023-03-06T10:01:21.379Z,24.88
2023-03-06T10:03:50.952Z,23.00
2023-03-06T10:06:53.065Z,24.45
2023-03-06T10:09:36.517Z,24.17
2023-03-06T10:12:29.495Z,23.58
2023-03-06T10:15:07.870Z,22.20
2023-03-06T10:17:44.014Z,23.73
2023-03-06T10:20:26.499Z,22.92
2023-03-06T10:23:27.852Z,21.15
2023-03-06T10:26:08.218Z,21.10
2023-03-06T10:28:40.989Z,21.00
2023-03-06T10:31:24.944Z,21.92
2023-03-06T10:33:59.375Z,21.70
2023-03-06T10:36:29.773Z,22.75
2023-03-06T10:38:58.953Z,20.05
2023-03-06T10:41:30.035Z,21.48
2023-03-06T10:44:05.769Z,20.45
2023-03-06T10:46:34.720Z,20.40
2023-03-06T10:49:22.776Z,19.95
2023-03-06T10:51:57.212Z,18.40
2023-03-06T10:54:24.601Z,17.75
2023-03-06T10:56:51.560Z,17.38
2023-03-06T10:59:28.250Z,17.83
2023-03-06T11:02:19.221Z,17.45
2023-03-06T11:04:47.422Z,16.42
2023-03-06T11:07:20.304Z,17.23
2023-03-06T11:09:59.397Z,17.02
2023-03-06T11:12:36.927Z,18.48
2023-03-06T11:15:18.683Z,16.70
2023-03-06T11:17:50.488Z,16.73
2023-03-06T11:20:31.783Z,16.98
2023-03-06T11:23:31.347Z,17.25
2023-03-06T11:26:01.392Z,15.40
2023-03-06T11:28:33.183Z,14.65
2023-03-06T11:31:09.149Z,15.43
2023-03-06T11:33:49.010Z,15.02
2023-03-06T11:36:34.066Z,14.02
2023-03-06T11:39:04.616Z,14.60
2023-03-06T11:41:37.385Z,15.55
2023-03-06T11:44:04.272Z,14.10
2023-03-06T11:46:44.105Z,14.57
2023-03-06T11:49:32.600Z,15.55
2023-03-06T11:52:17.682Z,12.82
2023-03-06T11:54:46.968Z,13.23
2023-03-06T11:57:20.697Z,14.15
2023-03-06T12:00:19.766Z,15.50
2023-03-06T12:03:00.798Z,14.13
2023-03-06T12:05:52.699Z,13.82
2023-03-06T12:09:13.464Z,12.85
2023-03-06T12:11:54.364Z,12.27
2023-03-06T12:14:24.038Z,13.43
2023-03-06T12:17:05.733Z,12.35
2023-03-06T12:19:41.227Z,13.18
2023-03-06T12:22:44.339Z,14.40
2023-03-06T12:25:31.421Z,14.95
2023-03-06T12:28:34.834Z,13.80
2023-03-06T12:31:24.924Z,13.85
2023-03-06T12:34:04.653Z,13.07
2023-03-06T12:37:01.582Z,14.93
2023-03-06T12:39:43.135Z,13.93
2023-03-06T12:42:31.555Z,13.23
2023-03-06T12:45:04.319Z,13.80
2023-03-06T12:47:36.271Z,12.93
2023-03-06T12:50:13.795Z,12.90
2023-03-06T12:52:41.946Z,13.80
2023-03-06T12:55:16.674Z,15.75
2023-03-06T12:57:43.596Z,12.05
2023-03-06T13:00:37.616Z,9.77
2023-03-06T13:03:44.982Z,11.02
2023-03-06T13:06:20.794Z,10.82
2023-03-06T13:09:06.372Z,11.00
2023-03-06T13:12:08.327Z,11.93
2023-03-06T13:14:55.808Z,11.32
2023-03-06T13:17:37.761Z,12.15
2023-03-06T13:20:13.721Z,11.85
2023-03-06T13:22:45.038Z,11.13
2023-03-06T13:25:20.754Z,12.68
2023-03-06T13:27:53.595Z,12.75
2023-03-06T13:30:44.782Z,12.48
2023-03-06T13:33:32.931Z,11.65
2023-03-06T13:36:20.151Z,10.82
2023-03-06T13:38:52.500Z,11.48
2023-03-06T13:41:31.142Z,9.82
2023-03-06T13:44:23.064Z,12.82
2023-03-06T13:47:06.425Z,11.25
2023-03-06T13:49:34.899Z,12.10
2023-03-06T13:52:18.209Z,11.63
2023-03-06T13:55:03.934Z,11.40
2023-03-06T13:57:44.499Z,10.68
2023-03-06T14:00:41.852Z,10.95
2023-03-06T14:03:44.618Z,10.20
2023-03-06T14:06:37.307Z,12.13
2023-03-06T14:09:06.189Z,11.75
2023-03-06T14:11:34.910Z,13.45
2023-03-06T14:14:02.187Z,13.88
2023-03-06T14:16:48.985Z,11.70
2023-03-06T14:19:17.855Z,12.77
2023-03-06T14:21:56.315Z,12.77
2023-03-06T14:24:33.909Z,13.00
2023-03-06T14:27:01.358Z,14.30
2023-03-06T14:29:30.156Z,13.23
2023-03-06T14:31:59.452Z,13.07
2023-03-06T14:34:46.339Z,12.20
2023-03-06T14:37:25.153Z,13.75
2023-03-06T14:39:52.597Z,13.73
2023-03-06T14:42:19.386Z,13.85
2023-03-06T14:44:48.170Z,10.15
2023-03-06T14:47:26.752Z,13.73
2023-03-06T14:50:18.703Z,13.38
2023-03-06T14:52:46.260Z,13.25
2023-03-06T14:55:19.863Z,11.70
2023-03-06T14:58:03.821Z,12.35
2023-03-06T15:00:39.299Z,10.88
2023-03-06T15:03:13.145Z,11.73
2023-03-06T15:05:42.985Z,12.43
2023-03-06T15:08:10.056Z,9.52
2023-03-06T15:10:38.877Z,12.57
2023-03-06T15:13:32.918Z,12.95
2023-03-06T15:16:30.381Z,12.93
2023-03-06T15:19:01.745Z,12.93
2023-03-06T15:21:38.055Z,12.85
2023-03-06T15:24:28.100Z,14.35
2023-03-06T15:26:59.160Z,12.52
2023-03-06T15:29:27.892Z,13.02
2023-03-06T15:32:32.409Z,13.45
2023-03-06T15:35:24.379Z,12.52
2023-03-06T15:37:52.064Z,12.63
2023-03-06T15:40:21.413Z,11.75
2023-03-06T15:42:50.088Z,12.45
2023-03-06T15:45:19.685Z,11.93
2023-03-06T15:47:48.507Z,12.77
2023-03-06T15:50:24.138Z,10.75
2023-03-06T15:52:51.365Z,12.75
2023-03-06T15:55:21.449Z,11.02
2023-03-06T15:57:51.915Z,11.63
2023-03-06T16:00:28.619Z,8.85
2023-03-06T16:02:57.962Z,6.68
2023-03-06T16:05:27.112Z,8.23
2023-03-06T16:07:54.481Z,7.95
2023-03-06T16:10:24.111Z,7.10
2023-03-06T16:13:03.800Z,6.93
2023-03-06T16:15:36.057Z,7.20
2023-03-06T16:18:03.161Z,7.47
2023-03-06T16:20:30.334Z,7.75
2023-03-06T16:22:57.685Z,7.05
2023-03-06T16:25:28.162Z,7.22
2023-03-06T16:27:59.017Z,7.22
2023-03-06T16:30:31.993Z,7.10
2023-03-06T16:32:59.524Z,7.20
2023-03-06T16:35:26.923Z,6.75
2023-03-06T16:37:54.423Z,7.32
2023-03-06T16:40:24.287Z,7.80
2023-03-06T16:42:54.025Z,7.28
2023-03-06T16:45:24.365Z,6.38
2023-03-06T16:47:51.498Z,6.57
2023-03-06T16:50:26.131Z,6.63
2023-03-06T16:52:54.504Z,8.02
2023-03-06T16:55:22.404Z,7.60
2023-03-06T16:57:51.302Z,7.40
2023-03-06T17:00:20.325Z,7.80
2023-03-06T17:02:52.443Z,7.78
2023-03-06T17:05:20.255Z,7.45
2023-03-06T17:07:47.351Z,7.57
2023-03-06T17:10:15.928Z,8.15
2023-03-06T17:12:43.835Z,6.18
2023-03-06T17:15:11.901Z,7.10
2023-03-06T17:17:38.822Z,6.13
2023-03-06T17:20:08.328Z,6.40
2023-03-06T17:22:36.572Z,5.60
2023-03-06T17:25:06.878Z,5.63
2023-03-06T17:27:34.363Z,5.20
2023-03-06T17:30:01.602Z,4.32
2023-03-06T17:32:28.692Z,4.60
2023-03-06T17:34:55.681Z,4.68
2023-03-06T17:37:22.666Z,4.75
2023-03-06T17:39:49.866Z,4.78
2023-03-06T17:42:18.717Z,5.65
2023-03-06T17:44:46.355Z,5.63
2023-03-06T17:47:13.468Z,5.55
2023-03-06T17:49:40.267Z,6.45
2023-03-06T17:52:07.423Z,6.30
2023-03-06T17:54:34.756Z,6.65
2023-03-06T17:57:03.711Z,6.90
2023-03-06T17:59:34.021Z,7.40
2023-03-06T18:02:02.462Z,7.07
2023-03-06T18:04:29.949Z,7.82
2023-03-06T18:06:58.433Z,8.25
2023-03-06T18:09:25.553Z,7.90
2023-03-06T18:11:52.541Z,7.40
2023-03-06T18:14:19.568Z,8.32
2023-03-06T18:16:46.533Z,8.02
2023-03-06T18:19:13.727Z,8.25
2023-03-06T18:21:40.919Z,8.45
2023-03-06T18:24:09.256Z,9.60
2023-03-06T18:26:36.555Z,8.18
2023-03-06T18:29:04.680Z,8.45
2023-03-06T18:31:37.498Z,8.88
2023-03-06T18:34:11.117Z,9.13
2023-03-06T18:36:38.675Z,8.73
2023-03-06T18:39:08.863Z,8.75
2023-03-06T18:41:36.420Z,9.30
2023-03-06T18:44:03.853Z,8.93
2023-03-06T18:46:36.478Z,9.45
2023-03-06T18:49:04.081Z,9.75
2023-03-06T18:51:31.423Z,8.40
2023-03-06T18:54:00.305Z,8.93
2023-03-06T18:56:27.635Z,9.25
2023-03-06T18:58:55.397Z,8.38
2023-03-06T19:01:23.391Z,9.25
2023-03-06T19:03:50.637Z,8.60
2023-03-06T19:06:17.981Z,8.60
2023-03-06T19:08:45.474Z,7.97
2023-03-06T19:11:16.050Z,9.45
2023-03-06T19:13:44.362Z,6.90
2023-03-06T19:16:24.632Z,7.63
2023-03-06T19:18:52.999Z,7.05
2023-03-06T19:21:22.595Z,5.10
2023-03-06T19:23:50.380Z,4.15
2023-03-06T19:26:24.292Z,3.40
2023-03-06T19:28:52.960Z,3.08
2023-03-06T19:31:28.625Z,3.03
2023-03-06T19:33:57.656Z,3.08
2023-03-06T19:36:29.264Z,2.90
2023-03-06T19:38:59.072Z,3.50
2023-03-06T19:41:27.697Z,3.00
2023-03-06T19:44:02.458Z,4.07
2023-03-06T19:46:30.327Z,3.40
2023-03-06T19:49:12.707Z,3.97
2023-03-06T19:51:40.760Z,3.58
2023-03-06T19:54:09.618Z,3.92
2023-03-06T19:56:37.747Z,3.78
2023-03-06T19:59:05.525Z,3.70
2023-03-06T20:01:34.928Z,4.47
2023-03-06T20:04:03.642Z,4.07
2023-03-06T20:06:33.917Z,3.90
2023-03-06T20:09:03.897Z,4.05
2023-03-06T20:11:31.937Z,4.38
2023-03-06T20:14:05.149Z,3.45
2023-03-06T20:16:33.603Z,3.08
2023-03-06T20:19:02.424Z,3.72
2023-03-06T20:21:31.767Z,3.55
2023-03-06T20:23:59.686Z,4.38
2023-03-06T20:26:32.590Z,3.60
2023-03-06T20:29:00.435Z,3.60
2023-03-06T20:31:30.368Z,3.40
2023-03-06T20:33:59.183Z,3.58
2023-03-06T20:36:29.164Z,3.67
2023-03-06T20:38:58.865Z,4.38
2023-03-06T20:41:29.046Z,4.32
2023-03-06T20:43:58.274Z,4.38
2023-03-06T20:46:26.441Z,4.20
2023-03-06T20:48:54.926Z,5.10
2023-03-06T20:51:24.491Z,5.00
2023-03-06T20:53:56.200Z,4.95
2023-03-06T20:56:26.223Z,5.63
2023-03-06T20:58:53.362Z,4.82
2023-03-06T21:01:24.612Z,3.90
2023-03-06T21:03:52.520Z,4.25
2023-03-06T21:06:20.847Z,4.32
2023-03-06T21:08:48.266Z,4.07
2023-03-06T21:11:16.169Z,4.13
2023-03-06T21:13:43.227Z,4.40
2023-03-06T21:16:15.735Z,3.30
2023-03-06T21:18:43.169Z,4.13
2023-03-06T21:21:18.563Z,4.45
2023-03-06T21:23:47.250Z,3.30
2023-03-06T21:26:16.957Z,3.38
2023-03-06T21:28:44.211Z,4.22
2023-03-06T21:31:12.717Z,4.55
2023-03-06T21:33:39.964Z,4.40
2023-03-06T21:36:07.525Z,3.55
2023-03-06T21:38:34.982Z,3.83
2023-03-06T21:41:18.890Z,3.83
2023-03-06T21:43:46.155Z,3.70
2023-03-06T21:46:13.829Z,3.50
2023-03-06T21:48:40.979Z,3.88
2023-03-06T21:51:09.545Z,3.97
2023-03-06T21:53:37.706Z,4.05
2023-03-06T21:56:05.243Z,3.75
2023-03-06T21:58:32.341Z,4.00
2023-03-06T22:00:59.725Z,3.90
2023-03-06T22:03:29.965Z,3.78
2023-03-06T22:05:56.940Z,3.65
2023-03-06T22:08:25.237Z,3.63
2023-03-06T22:10:52.343Z,4.28
2023-03-06T22:13:23.010Z,3.72
2023-03-06T22:15:55.232Z,4.00
2023-03-06T22:18:22.265Z,4.05
2023-03-06T22:20:49.088Z,3.58
2023-03-06T22:23:16.062Z,3.72
2023-03-06T22:25:42.925Z,4.15
2023-03-06T22:28:09.953Z,4.82
2023-03-06T22:30:36.770Z,3.67
2023-03-06T22:33:03.777Z,4.40
2023-03-06T22:35:30.789Z,3.90
2023-03-06T22:37:58.839Z,3.92
2023-03-06T22:40:26.042Z,4.38
2023-03-06T22:42:52.972Z,3.85
2023-03-06T22:45:19.950Z,4.40
2023-03-06T22:47:47.015Z,4.70
2023-03-06T22:50:14.584Z,4.18
2023-03-06T22:52:41.486Z,4.25
2023-03-06T22:55:09.417Z,4.55
2023-03-06T22:57:36.454Z,4.68
2023-03-06T23:00:04.543Z,4.90
2023-03-06T23:02:35.191Z,5.05
2023-03-06T23:05:02.108Z,4.88
2023-03-06T23:07:28.995Z,4.70
2023-03-06T23:09:55.966Z,5.28
2023-03-06T23:12:22.901Z,5.00
2023-03-06T23:14:51.333Z,5.10
2023-03-06T23:17:18.364Z,5.05
2023-03-06T23:19:45.423Z,4.88
2023-03-06T23:22:14.150Z,5.25
2023-03-06T23:24:41.092Z,5.20
2023-03-06T23:27:07.991Z,5.32
2023-03-06T23:29:35.004Z,6.40
2023-03-06T23:32:02.026Z,6.80
2023-03-06T23:34:29.160Z,6.93
2023-03-06T23:36:56.430Z,6.68
2023-03-06T23:39:23.639Z,6.88
2023-03-06T23:41:50.644Z,6.78
2023-03-06T23:44:17.599Z,7.55
2023-03-06T23:46:44.460Z,7.55
2023-03-06T23:49:11.388Z,8.13
2023-03-06T23:51:38.435Z,9.18
2023-03-06T23:54:05.793Z,8.38
2023-03-06T23:56:32.708Z,8.10
2023-03-06T23:58:59.913Z,9.32
